Locke Mills, Maine
Current Conditions -  °F | °C
As of 4:52 AM on Monday 20 Oct 2014 (Local Time) from KBML Reporting Station
Overcast Overcast  
Wind Chill: 28°   Ceiling: 3500
Heat Index: 35°   Visibility: 10mi
Dew Point: 22°   Wind: 9mph
Humidity: 59%   Direction: 280°W
Pressure: 29.93"   Gusts: NA
Location:  44.4°N, 70.7°W
Report Text: KBML 200852Z AUTO 28008KT 230V320 10SM OVC035 02/M06 A2993 RMK AO2 SLP146 T00171056 53010
Loading
Personal Weather Stations






























Interactive Weather Map
Tropical Storm Tracking
New forecast layout! Learn more

10-Day Weather Forecast

Advertisements
Track Severe Weather on mobile